createdAt,value
2022-10-19T00:00:28.450Z,12.24
2022-10-19T00:03:31.269Z,12.30
2022-10-19T00:06:35.589Z,12.35
2022-10-19T00:09:39.875Z,12.34
2022-10-19T00:12:42.577Z,12.40
2022-10-19T00:15:46.319Z,12.37
2022-10-19T00:18:49.017Z,12.39
2022-10-19T00:21:52.111Z,12.33
2022-10-19T00:24:57.612Z,12.24
2022-10-19T00:28:00.165Z,12.15
2022-10-19T00:31:04.867Z,12.25
2022-10-19T00:34:07.659Z,12.22
2022-10-19T00:37:10.260Z,12.33
2022-10-19T00:40:14.576Z,12.25
2022-10-19T00:43:18.909Z,12.32
2022-10-19T00:46:21.680Z,12.31
2022-10-19T00:49:27.981Z,12.34
2022-10-19T00:52:31.457Z,12.39
2022-10-19T00:55:36.124Z,12.45
2022-10-19T00:58:39.402Z,12.44
2022-10-19T01:01:45.282Z,12.29
2022-10-19T01:04:51.732Z,12.36
2022-10-19T01:07:55.300Z,12.38
2022-10-19T01:11:14.375Z,12.36
2022-10-19T01:14:34.763Z,12.33
2022-10-19T01:17:49.203Z,12.40
2022-10-19T01:21:09.427Z,12.42
2022-10-19T01:24:43.731Z,12.39
2022-10-19T01:28:02.414Z,12.35
2022-10-19T01:31:14.176Z,12.27
2022-10-19T01:34:24.239Z,12.20
2022-10-19T01:37:35.360Z,12.22
2022-10-19T01:40:46.096Z,12.08
2022-10-19T01:43:58.284Z,12.09
2022-10-19T01:47:07.878Z,12.22
2022-10-19T01:50:17.009Z,12.32
2022-10-19T01:53:21.718Z,12.20
2022-10-19T01:56:28.198Z,12.21
2022-10-19T01:59:32.786Z,12.29
2022-10-19T02:02:39.962Z,12.36
2022-10-19T02:05:44.049Z,12.31
2022-10-19T02:08:49.222Z,12.20
2022-10-19T02:11:57.249Z,12.18
2022-10-19T02:15:04.158Z,12.20
2022-10-19T02:18:09.297Z,12.24
2022-10-19T02:21:12.133Z,12.24
2022-10-19T02:24:14.652Z,12.22
2022-10-19T02:27:19.100Z,12.22
2022-10-19T02:30:22.438Z,12.29
2022-10-19T02:33:26.970Z,12.12
2022-10-19T02:36:29.904Z,12.19
2022-10-19T02:39:32.926Z,12.21
2022-10-19T02:42:40.733Z,12.34
2022-10-19T02:45:48.939Z,12.21
2022-10-19T02:48:53.357Z,12.26
2022-10-19T02:51:59.202Z,12.22
2022-10-19T02:55:01.739Z,12.22
2022-10-19T02:58:04.440Z,12.26
2022-10-19T03:01:07.309Z,12.29
2022-10-19T03:04:11.464Z,12.36
2022-10-19T03:07:16.375Z,12.38
2022-10-19T03:10:18.945Z,12.42
2022-10-19T03:13:21.646Z,12.44
2022-10-19T03:16:24.188Z,12.34
2022-10-19T03:19:28.366Z,12.24
2022-10-19T03:22:31.068Z,12.26
2022-10-19T03:25:33.620Z,12.25
2022-10-19T03:28:36.345Z,12.23
2022-10-19T03:31:38.914Z,12.24
2022-10-19T03:34:42.943Z,12.27
2022-10-19T03:37:45.719Z,12.26
2022-10-19T03:40:48.270Z,12.19
2022-10-19T03:43:51.020Z,12.07
2022-10-19T03:46:53.904Z,12.14
2022-10-19T03:49:57.855Z,12.15
2022-10-19T03:53:00.479Z,12.25
2022-10-19T03:56:05.094Z,12.27
2022-10-19T03:59:08.506Z,12.24
2022-10-19T04:02:11.069Z,12.25
2022-10-19T04:05:15.118Z,12.21
2022-10-19T04:08:17.850Z,12.30
2022-10-19T04:11:23.308Z,12.25
2022-10-19T04:14:32.149Z,12.14
2022-10-19T04:17:35.785Z,12.08
2022-10-19T04:20:42.846Z,12.13
2022-10-19T04:23:45.524Z,12.16
2022-10-19T04:26:50.122Z,12.20
2022-10-19T04:29:52.794Z,12.29
2022-10-19T04:32:55.328Z,12.27
2022-10-19T04:36:00.911Z,12.29
2022-10-19T04:39:03.695Z,12.33
2022-10-19T04:42:06.283Z,12.35
2022-10-19T04:45:09.722Z,12.30
2022-10-19T04:48:15.004Z,12.28
2022-10-19T04:51:19.939Z,12.26
2022-10-19T04:54:22.736Z,12.29
2022-10-19T04:57:25.287Z,12.20
2022-10-19T05:00:27.983Z,12.25
2022-10-19T05:03:30.683Z,12.19
2022-10-19T05:06:34.635Z,12.21
2022-10-19T05:09:40.408Z,12.26
2022-10-19T05:12:42.996Z,12.15
2022-10-19T05:15:45.608Z,12.13
2022-10-19T05:18:50.150Z,12.09
2022-10-19T05:21:54.092Z,11.96
2022-10-19T05:24:58.176Z,12.00
2022-10-19T05:28:00.942Z,12.03
2022-10-19T05:31:08.831Z,12.01
2022-10-19T05:34:11.467Z,11.98
2022-10-19T05:37:17.210Z,11.91
2022-10-19T05:40:19.853Z,11.83
2022-10-19T05:43:22.435Z,11.88
2022-10-19T05:46:26.613Z,11.96
2022-10-19T05:49:29.453Z,12.02
2022-10-19T05:52:33.393Z,12.04
2022-10-19T05:55:36.704Z,12.07
2022-10-19T05:58:39.491Z,12.08
2022-10-19T06:01:42.283Z,12.02
2022-10-19T06:04:44.994Z,12.05
2022-10-19T06:07:48.953Z,12.12
2022-10-19T06:10:51.859Z,12.03
2022-10-19T06:13:56.308Z,12.08
2022-10-19T06:16:58.903Z,12.01
2022-10-19T06:20:01.439Z,11.92
2022-10-19T06:23:06.200Z,11.91
2022-10-19T06:26:11.000Z,12.00
2022-10-19T06:29:13.596Z,12.09
2022-10-19T06:32:16.525Z,12.14
2022-10-19T06:35:19.461Z,12.10
2022-10-19T06:38:23.399Z,12.16
2022-10-19T06:41:26.100Z,12.21
2022-10-19T06:44:28.693Z,12.31
2022-10-19T06:47:33.277Z,12.26
2022-10-19T06:50:36.479Z,12.27
2022-10-19T06:53:40.393Z,12.31
2022-10-19T06:56:42.983Z,12.41
2022-10-19T06:59:46.530Z,12.50
2022-10-19T07:02:50.682Z,12.48
2022-10-19T07:05:57.154Z,12.60
2022-10-19T07:09:02.726Z,12.67
2022-10-19T07:12:05.478Z,12.66
2022-10-19T07:15:08.938Z,12.75
2022-10-19T07:18:11.520Z,12.71
2022-10-19T07:21:16.042Z,12.77
2022-10-19T07:24:20.783Z,12.73
2022-10-19T07:27:23.395Z,12.78
2022-10-19T07:30:26.011Z,12.92
2022-10-19T07:33:28.912Z,13.37
2022-10-19T07:36:33.242Z,13.46
2022-10-19T07:39:37.669Z,13.23
2022-10-19T07:42:40.376Z,13.19
2022-10-19T07:45:42.947Z,13.35
2022-10-19T07:48:46.211Z,13.36
2022-10-19T07:51:48.885Z,13.31
2022-10-19T07:54:53.397Z,13.28
2022-10-19T07:57:56.243Z,13.28
2022-10-19T08:01:01.305Z,13.39
2022-10-19T08:07:26.575Z,13.36
2022-10-19T08:10:30.549Z,13.39
2022-10-19T08:13:33.107Z,13.38
2022-10-19T08:16:40.186Z,13.46
2022-10-19T08:19:43.583Z,13.40
2022-10-19T08:22:46.816Z,13.31
2022-10-19T08:25:51.089Z,13.42
2022-10-19T08:28:53.662Z,13.50
2022-10-19T08:31:56.334Z,13.66
2022-10-19T08:34:58.922Z,13.63
2022-10-19T08:38:02.861Z,13.54
2022-10-19T08:41:22.478Z,13.79
2022-10-19T08:44:41.587Z,13.91
2022-10-19T08:47:59.174Z,14.20
2022-10-19T08:51:02.712Z,14.28
2022-10-19T08:54:15.687Z,14.42
2022-10-19T08:57:31.147Z,14.61
2022-10-19T09:00:42.939Z,14.61
2022-10-19T09:03:55.558Z,14.55
2022-10-19T09:07:14.861Z,14.60
2022-10-19T09:10:22.608Z,14.59
2022-10-19T09:13:47.108Z,14.96
2022-10-19T09:17:07.625Z,15.25
2022-10-19T09:20:17.340Z,15.20
2022-10-19T09:23:26.170Z,15.55
2022-10-19T09:26:31.756Z,15.52
2022-10-19T09:29:41.246Z,15.16
2022-10-19T09:32:44.103Z,15.08
2022-10-19T09:35:48.184Z,15.13
2022-10-19T09:38:52.033Z,14.98
2022-10-19T09:41:56.496Z,14.99
2022-10-19T09:45:03.409Z,15.12
2022-10-19T09:48:18.076Z,15.07
2022-10-19T09:51:22.005Z,15.11
2022-10-19T09:54:28.115Z,16.15
2022-10-19T09:57:31.071Z,17.20
2022-10-19T10:00:38.880Z,17.15
2022-10-19T10:03:43.373Z,16.55
2022-10-19T10:06:49.137Z,15.95
2022-10-19T10:09:53.985Z,15.85
2022-10-19T10:12:58.752Z,15.84
2022-10-19T10:16:04.941Z,16.69
2022-10-19T10:19:09.971Z,17.41
2022-10-19T10:22:26.116Z,17.14
2022-10-19T10:25:31.144Z,17.41
2022-10-19T10:28:33.837Z,16.95
2022-10-19T10:31:37.935Z,16.60
2022-10-19T10:34:51.824Z,16.27
2022-10-19T10:38:07.188Z,15.70
2022-10-19T10:41:15.172Z,15.88
2022-10-19T10:44:22.165Z,16.05
2022-10-19T10:47:27.475Z,16.70
2022-10-19T10:50:35.715Z,16.75
2022-10-19T10:53:40.467Z,16.45
2022-10-19T10:56:44.387Z,16.26
2022-10-19T10:59:56.370Z,16.00
2022-10-19T11:03:08.977Z,16.34
2022-10-19T11:06:13.497Z,17.34
2022-10-19T11:09:25.536Z,18.18
2022-10-19T11:12:35.467Z,18.11
2022-10-19T11:15:45.527Z,18.61
2022-10-19T11:18:54.601Z,17.60
2022-10-19T11:22:03.197Z,17.45
2022-10-19T11:25:24.907Z,17.16
2022-10-19T11:28:46.390Z,17.00
2022-10-19T11:31:52.457Z,16.82
2022-10-19T11:35:12.407Z,16.74
2022-10-19T11:38:32.297Z,16.84
2022-10-19T11:41:39.750Z,17.64
2022-10-19T11:44:56.105Z,17.79
2022-10-19T11:48:15.945Z,18.79
2022-10-19T11:51:26.632Z,18.49
2022-10-19T11:54:43.987Z,17.31
2022-10-19T11:57:52.478Z,17.34
2022-10-19T12:01:09.180Z,17.15
2022-10-19T12:04:24.832Z,16.72
2022-10-19T12:07:45.269Z,17.34
2022-10-19T12:10:57.751Z,17.76
2022-10-19T12:14:04.128Z,17.86
2022-10-19T12:17:10.391Z,17.71
2022-10-19T12:20:22.055Z,18.03
2022-10-19T12:23:33.097Z,18.54
2022-10-19T12:26:37.737Z,17.99
2022-10-19T12:29:44.957Z,17.15
2022-10-19T12:33:02.879Z,16.81
2022-10-19T12:36:17.095Z,16.68
2022-10-19T12:39:26.383Z,16.83
2022-10-19T12:42:32.875Z,16.87
2022-10-19T12:45:39.331Z,16.90
2022-10-19T12:48:41.891Z,16.75
2022-10-19T12:51:47.959Z,16.99
2022-10-19T12:54:52.086Z,17.22
2022-10-19T12:58:01.528Z,17.29
2022-10-19T13:01:06.882Z,16.93
2022-10-19T13:04:12.964Z,16.83
2022-10-19T13:07:19.245Z,16.70
2022-10-19T13:10:26.734Z,16.39
2022-10-19T13:13:54.438Z,16.60
2022-10-19T13:16:59.405Z,16.49
2022-10-19T13:20:35.556Z,16.25
2022-10-19T13:23:41.970Z,16.43
2022-10-19T13:26:46.284Z,16.61
2022-10-19T13:29:48.858Z,16.39
2022-10-19T13:32:51.598Z,16.65
2022-10-19T13:36:07.931Z,16.63
2022-10-19T13:39:16.154Z,16.61
2022-10-19T13:42:28.881Z,16.84
2022-10-19T13:45:31.674Z,16.55
2022-10-19T13:48:53.281Z,16.32
2022-10-19T13:52:23.037Z,16.17
2022-10-19T13:55:52.135Z,16.07
2022-10-19T13:59:32.777Z,15.95
2022-10-19T14:02:59.447Z,15.87
2022-10-19T14:06:23.539Z,15.72
2022-10-19T14:09:49.036Z,15.67
2022-10-19T14:12:52.866Z,15.47
2022-10-19T14:16:00.558Z,15.58
2022-10-19T14:19:03.267Z,15.64
2022-10-19T14:22:20.392Z,15.52
2022-10-19T14:25:25.458Z,15.50
2022-10-19T14:28:29.560Z,15.47
2022-10-19T14:31:37.086Z,15.29
2022-10-19T14:34:41.540Z,15.26
2022-10-19T14:37:44.906Z,15.26
2022-10-19T14:40:47.535Z,15.22
2022-10-19T14:43:50.271Z,15.17
2022-10-19T14:46:54.874Z,15.11
2022-10-19T14:49:58.358Z,15.05
2022-10-19T14:53:09.943Z,15.00
2022-10-19T14:56:19.688Z,15.01
2022-10-19T14:59:27.924Z,15.00
2022-10-19T15:02:36.578Z,14.99
2022-10-19T15:05:47.212Z,14.87
2022-10-19T15:12:06.026Z,14.85
2022-10-19T15:15:11.276Z,14.83
2022-10-19T15:18:43.388Z,14.76
2022-10-19T15:21:40.593Z,14.70
2022-10-19T15:25:00.697Z,14.66
2022-10-19T15:28:33.919Z,14.57
2022-10-19T15:31:38.804Z,14.49
2022-10-19T15:34:44.925Z,14.43
2022-10-19T15:37:50.593Z,14.32
2022-10-19T15:40:58.309Z,14.26
2022-10-19T15:44:04.206Z,14.24
2022-10-19T15:47:23.553Z,14.13
2022-10-19T15:50:38.109Z,14.01
2022-10-19T15:53:40.795Z,13.87
2022-10-19T15:56:44.132Z,13.79
2022-10-19T15:59:48.659Z,13.67
2022-10-19T16:02:51.382Z,13.54
2022-10-19T16:05:56.149Z,13.46
2022-10-19T16:08:59.250Z,13.34
2022-10-19T16:12:01.900Z,13.23
2022-10-19T16:15:04.920Z,13.15
2022-10-19T16:18:07.581Z,13.05
2022-10-19T16:21:11.565Z,12.95
2022-10-19T16:24:14.147Z,12.84
2022-10-19T16:27:17.169Z,12.73
2022-10-19T16:30:20.163Z,12.56
2022-10-19T16:33:23.472Z,12.42
2022-10-19T16:36:27.555Z,12.34
2022-10-19T16:39:30.326Z,12.26
2022-10-19T16:42:34.953Z,12.20
2022-10-19T16:45:37.787Z,12.12
2022-10-19T16:48:40.388Z,12.03
2022-10-19T16:51:44.346Z,11.89
2022-10-19T16:54:47.055Z,11.79
2022-10-19T16:57:49.594Z,11.69
2022-10-19T17:00:52.305Z,11.65
2022-10-19T17:03:55.747Z,11.55
2022-10-19T17:06:59.727Z,11.49
2022-10-19T17:10:02.472Z,11.42
2022-10-19T17:13:05.151Z,11.31
2022-10-19T17:16:08.576Z,11.23
2022-10-19T17:19:11.989Z,11.18
2022-10-19T17:22:16.043Z,11.10
2022-10-19T17:25:18.724Z,11.05
2022-10-19T17:28:24.119Z,10.96
2022-10-19T17:31:29.902Z,10.92
2022-10-19T17:34:32.803Z,10.91
2022-10-19T17:37:37.101Z,10.88
2022-10-19T17:40:39.970Z,10.80
2022-10-19T17:43:44.845Z,10.71
2022-10-19T17:46:47.619Z,10.67
2022-10-19T17:49:50.312Z,10.51
2022-10-19T17:52:54.233Z,10.51
2022-10-19T17:55:57.230Z,10.53
2022-10-19T17:59:02.407Z,10.47
2022-10-19T18:02:07.439Z,10.45
2022-10-19T18:05:10.499Z,10.42
2022-10-19T18:08:14.391Z,10.39
2022-10-19T18:11:19.684Z,10.29
2022-10-19T18:14:22.391Z,10.21
2022-10-19T18:17:27.668Z,10.15
2022-10-19T18:20:30.688Z,10.11
2022-10-19T18:23:34.643Z,10.10
2022-10-19T18:26:37.320Z,10.05
2022-10-19T18:29:39.861Z,9.98
2022-10-19T18:32:42.432Z,9.95
2022-10-19T18:35:44.981Z,9.89
2022-10-19T18:38:52.749Z,9.81
2022-10-19T18:41:55.575Z,9.77
2022-10-19T18:44:58.322Z,9.72
2022-10-19T18:48:00.919Z,9.70
2022-10-19T18:51:05.973Z,9.71
2022-10-19T18:54:11.931Z,9.69
2022-10-19T18:57:14.613Z,9.61
2022-10-19T19:00:17.281Z,9.50
2022-10-19T19:03:20.542Z,9.46
2022-10-19T19:06:25.428Z,9.39
2022-10-19T19:09:29.308Z,9.36
2022-10-19T19:12:32.221Z,9.29
2022-10-19T19:15:34.790Z,9.20
2022-10-19T19:18:37.509Z,9.19
2022-10-19T19:21:43.650Z,9.15
2022-10-19T19:24:50.329Z,9.12
2022-10-19T19:27:52.912Z,9.07
2022-10-19T19:30:55.479Z,9.04
2022-10-19T19:34:01.022Z,8.97
2022-10-19T19:37:07.316Z,8.97
2022-10-19T19:40:14.465Z,8.93
2022-10-19T19:43:17.716Z,8.90
2022-10-19T19:46:20.763Z,8.90
2022-10-19T19:49:24.975Z,8.95
2022-10-19T19:52:27.556Z,8.99
2022-10-19T19:55:38.886Z,9.05
2022-10-19T19:58:42.788Z,9.06
2022-10-19T20:01:45.624Z,9.07
2022-10-19T20:04:48.625Z,9.05
2022-10-19T20:07:51.686Z,9.00
2022-10-19T20:10:55.731Z,8.90
2022-10-19T20:13:59.189Z,8.83
2022-10-19T20:17:01.896Z,8.79
2022-10-19T20:20:05.325Z,8.80
2022-10-19T20:23:08.062Z,8.86
2022-10-19T20:26:16.944Z,8.90
2022-10-19T20:29:20.225Z,8.92
2022-10-19T20:32:22.890Z,8.89
2022-10-19T20:35:25.452Z,8.87
2022-10-19T20:38:28.124Z,8.89
2022-10-19T20:41:32.080Z,8.85
2022-10-19T20:44:34.861Z,8.85
2022-10-19T20:47:37.561Z,8.78
2022-10-19T20:50:40.494Z,8.76
2022-10-19T20:53:43.725Z,8.76
2022-10-19T20:56:48.072Z,8.72
2022-10-19T20:59:50.829Z,8.58
2022-10-19T21:02:53.792Z,8.56
2022-10-19T21:05:56.460Z,8.53
2022-10-19T21:08:59.944Z,8.45
2022-10-19T21:12:04.033Z,8.43
2022-10-19T21:15:07.562Z,8.41
2022-10-19T21:18:10.202Z,8.36
2022-10-19T21:21:16.406Z,8.39
2022-10-19T21:24:21.013Z,8.41
2022-10-19T21:27:25.023Z,8.40
2022-10-19T21:30:28.112Z,8.39
2022-10-19T21:33:30.795Z,8.32
2022-10-19T21:36:33.651Z,8.35
2022-10-19T21:39:36.476Z,8.31
2022-10-19T21:42:40.482Z,8.29
2022-10-19T21:45:43.118Z,8.37
2022-10-19T21:48:46.243Z,8.37
2022-10-19T21:51:50.939Z,8.41
2022-10-19T21:54:54.544Z,8.48
2022-10-19T21:57:58.674Z,8.53
2022-10-19T22:01:05.232Z,8.52
2022-10-19T22:04:10.610Z,8.53
2022-10-19T22:07:13.228Z,8.54
2022-10-19T22:10:15.969Z,8.51
2022-10-19T22:13:19.885Z,8.50
2022-10-19T22:16:23.604Z,8.46
2022-10-19T22:19:26.505Z,8.44
2022-10-19T22:22:29.205Z,8.46
2022-10-19T22:25:32.376Z,8.53
2022-10-19T22:28:36.431Z,8.46
2022-10-19T22:31:39.407Z,8.43
2022-10-19T22:34:41.981Z,8.39
2022-10-19T22:37:44.712Z,8.37
2022-10-19T22:40:47.414Z,8.37
2022-10-19T22:43:51.391Z,8.32
2022-10-19T22:46:54.156Z,8.34
2022-10-19T22:49:56.757Z,8.29
2022-10-19T22:52:59.383Z,8.28
2022-10-19T22:56:02.333Z,8.28
2022-10-19T22:59:08.024Z,8.30
2022-10-19T23:02:10.988Z,8.24
2022-10-19T23:05:13.800Z,8.22
2022-10-19T23:08:16.576Z,8.20
2022-10-19T23:11:19.303Z,8.24
2022-10-19T23:14:23.544Z,8.19
2022-10-19T23:17:26.212Z,8.16
2022-10-19T23:20:29.158Z,8.11
2022-10-19T23:23:33.141Z,8.09
2022-10-19T23:26:35.846Z,8.08
2022-10-19T23:29:40.341Z,8.08
2022-10-19T23:32:43.105Z,8.06
2022-10-19T23:35:45.858Z,7.97
2022-10-19T23:38:50.166Z,7.92
2022-10-19T23:41:52.951Z,7.91
2022-10-19T23:44:57.078Z,7.89
2022-10-19T23:47:59.918Z,7.84
2022-10-19T23:51:04.922Z,7.82
2022-10-19T23:54:07.663Z,7.81
2022-10-19T23:57:10.371Z,7.79
